Cape Lookout Natl Seashore, North Carolina
Current Conditions -  °F | °C
As of 4:56 PM on Monday 20 Oct 2014 (Local Time) from KNBT Reporting Station
Clear Clear  
Wind Chill: 73°   Ceiling: Unl
Heat Index: 73°   Visibility: 8mi
Dew Point: 53°   Wind: 7mph
Humidity: 49%   Direction: 160°SSE
Pressure: 30.03"   Gusts: NA
Location:  34.88°N, 76.29°W
Report Text: KNBT 202056Z AUTO 16006KT 8SM CLR 23/12 A3003 RMK AO2 SLP172 6//// T02280117 56018 PNO
Loading
Personal Weather Stations






























Interactive Weather Map
Tropical Storm Tracking
New forecast layout! Learn more

10-Day Weather Forecast

Advertisements
Track Severe Weather on mobile